Time;durP1;ratioP1;P1;durP2;ratioP2;P2;SDS_P1;SDS_P2;PMS_P1;PMS_P2;Temp;Humidity;BMP_temperature;BMP_pressure;BME280_temperature;BME280_humidity;BME280_pressure;Samples;Min_cycle;Max_cycle;Signal;HPM_P1;HPM_P2
2021/12/03 00:00:38;;;;;;;20.13;10.38;;;-0.80;99.90;;;;;;5049263;28;20186;-66
2021/12/03 00:03:05;;;;;;;19.92;10.48;;;-0.60;99.90;;;;;;5050603;28;20151;-66
2021/12/03 00:05:31;;;;;;;21.92;10.35;;;-0.50;99.90;;;;;;5050508;28;20047;-66
2021/12/03 00:07:56;;;;;;;17.08;10.23;;;-0.60;99.90;;;;;;5050810;28;20045;-66
2021/12/03 00:10:26;;;;;;;17.00;10.02;;;-0.60;99.90;;;;;;5049078;28;20052;-66
2021/12/03 00:12:53;;;;;;;20.02;10.88;;;-0.70;99.90;;;;;;5050327;28;20060;-66
2021/12/03 00:15:23;;;;;;;20.77;10.93;;;-0.60;99.90;;;;;;5050355;28;20083;-66
2021/12/03 00:17:49;;;;;;;25.55;11.73;;;-0.70;99.90;;;;;;5049126;28;20041;-66
2021/12/03 00:20:16;;;;;;;17.63;11.20;;;;;;;;;;5049116;28;20622;-66
2021/12/03 00:22:45;;;;;;;22.15;10.38;;;-0.50;99.90;;;;;;5065666;28;20128;-66
2021/12/03 00:25:11;;;;;;;21.48;10.40;;;;;;;;;;5050726;28;20083;-66
2021/12/03 00:27:41;;;;;;;18.42;10.27;;;-0.50;99.90;;;;;;5050635;28;20045;-65
2021/12/03 00:30:09;;;;;;;17.23;10.20;;;-0.50;99.90;;;;;;5049160;28;20546;-66
2021/12/03 00:32:35;;;;;;;19.10;9.82;;;-0.60;99.90;;;;;;5050178;28;20485;-66
2021/12/03 00:35:01;;;;;;;21.42;10.18;;;-0.60;99.90;;;;;;5050245;28;20049;-66
2021/12/03 00:37:27;;;;;;;25.10;10.63;;;;;;;;;;5049435;28;20508;-66
2021/12/03 00:39:54;;;;;;;19.13;10.30;;;-0.60;99.90;;;;;;5050368;28;20124;-66
2021/12/03 00:42:20;;;;;;;15.88;10.27;;;;;;;;;;5049985;28;20100;-66
2021/12/03 00:44:51;;;;;;;21.38;11.18;;;-0.50;99.90;;;;;;5050161;28;20059;-66
2021/12/03 00:47:18;;;;;;;18.77;10.05;;;;;;;;;;5051683;28;20041;-66
2021/12/03 00:49:44;;;;;;;17.95;11.07;;;-0.70;99.90;;;;;;5036033;28;20045;-66
2021/12/03 00:52:10;;;;;;;24.02;11.10;;;;;;;;;;5053880;28;20127;-66
2021/12/03 00:54:36;;;;;;;19.10;11.77;;;-1.10;99.90;;;;;;5053788;28;20493;-66
2021/12/03 00:57:02;;;;;;;19.45;11.65;;;-0.50;99.90;;;;;;5053722;28;20056;-66
2021/12/03 00:59:28;;;;;;;17.58;10.52;;;-0.40;99.90;;;;;;5053910;28;20088;-66
2021/12/03 01:01:54;;;;;;;14.63;10.50;;;;;;;;;;5053760;28;20122;-66
2021/12/03 01:04:19;;;;;;;18.73;10.80;;;-0.80;99.90;;;;;;5053659;28;20052;-66
2021/12/03 01:06:46;;;;;;;16.73;10.65;;;;;;;;;;5052373;28;20049;-66
2021/12/03 01:09:12;;;;;;;18.33;10.52;;;0.10;99.90;;;;;;5052321;28;20116;-66
2021/12/03 01:11:38;;;;;;;18.60;10.80;;;-0.50;99.90;;;;;;5036161;28;20052;-66
2021/12/03 01:14:04;;;;;;;18.92;11.18;;;-0.40;99.90;;;;;;5053418;28;20409;-66
2021/12/03 01:16:31;;;;;;;20.42;10.85;;;-0.40;99.90;;;;;;5053654;28;20047;-66
2021/12/03 01:18:57;;;;;;;19.83;10.57;;;-0.50;99.90;;;;;;5053686;28;20041;-66
2021/12/03 01:21:24;;;;;;;19.42;12.00;;;-0.40;99.90;;;;;;5052632;28;20098;-66
2021/12/03 01:23:51;;;;;;;19.33;11.75;;;-0.70;99.90;;;;;;5053850;28;20036;-66
2021/12/03 01:26:18;;;;;;;26.98;12.38;;;-0.30;99.90;;;;;;5052213;28;20397;-66
2021/12/03 01:28:45;;;;;;;24.95;11.82;;;0.10;99.90;;;;;;5051892;28;20048;-66
2021/12/03 01:31:11;;;;;;;23.70;12.70;;;-0.10;99.90;;;;;;5052003;28;20092;-66
2021/12/03 01:33:37;;;;;;;21.25;13.00;;;-0.20;99.90;;;;;;5052268;28;20048;-66
2021/12/03 01:36:03;;;;;;;31.35;13.80;;;;;;;;;;5053170;28;20051;-66
2021/12/03 01:38:28;;;;;;;32.05;15.00;;;-0.40;99.90;;;;;;5035168;28;20048;-66
2021/12/03 01:40:55;;;;;;;25.08;14.20;;;-0.70;99.90;;;;;;5051908;28;20057;-66
2021/12/03 01:43:25;;;;;;;33.60;15.60;;;-0.30;99.90;;;;;;5051787;28;20053;-66
2021/12/03 01:45:54;;;;;;;28.45;16.20;;;-0.20;99.90;;;;;;5053315;28;20084;-66
2021/12/03 01:48:20;;;;;;;32.97;18.10;;;-0.40;99.90;;;;;;5052161;28;20083;-66
2021/12/03 01:50:48;;;;;;;32.10;19.10;;;-0.20;99.90;;;;;;5053780;28;20080;-66
2021/12/03 01:53:21;;;;;;;32.15;18.60;;;-0.10;99.90;;;;;;5053444;28;20040;-66
2021/12/03 01:55:49;;;;;;;36.15;19.42;;;-0.30;99.90;;;;;;5052814;28;20400;-66
2021/12/03 01:58:16;;;;;;;38.05;21.25;;;-0.10;99.90;;;;;;5051983;28;20037;-66
2021/12/03 02:00:51;;;;;;;38.42;21.38;;;-0.10;99.90;;;;;;5052676;28;20051;-66
2021/12/03 02:03:19;;;;;;;43.08;21.55;;;-0.10;99.90;;;;;;5052981;28;20041;-66
2021/12/03 02:05:45;;;;;;;42.47;24.45;;;0.10;99.90;;;;;;5051409;28;20116;-66
2021/12/03 02:08:12;;;;;;;40.25;23.25;;;0.00;99.90;;;;;;5052360;28;20055;-66
2021/12/03 02:10:38;;;;;;;50.10;24.67;;;-0.10;99.90;;;;;;5052599;28;20051;-66
2021/12/03 02:13:04;;;;;;;45.25;25.05;;;0.10;99.90;;;;;;5052523;28;20147;-66
2021/12/03 02:15:31;;;;;;;40.67;24.90;;;-0.10;99.90;;;;;;5052482;28;20449;-66
2021/12/03 02:17:57;;;;;;;41.15;23.25;;;;;;;;;;5052440;28;20049;-66
2021/12/03 02:20:24;;;;;;;42.78;25.23;;;-0.80;99.90;;;;;;5052330;28;20120;-66
2021/12/03 02:22:51;;;;;;;41.25;25.00;;;0.20;99.90;;;;;;5052039;28;20056;-66
2021/12/03 02:25:22;;;;;;;41.90;26.77;;;-0.10;99.90;;;;;;5050886;28;20055;-66
2021/12/03 02:27:51;;;;;;;48.35;28.35;;;-0.20;99.90;;;;;;5050822;28;20572;-66
2021/12/03 02:30:21;;;;;;;48.33;28.40;;;0.20;99.90;;;;;;5051035;28;20051;-71
2021/12/03 02:32:49;;;;;;;49.78;26.13;;;-0.10;99.90;;;;;;5052389;28;20041;-72
2021/12/03 02:35:17;;;;;;;45.65;26.55;;;0.00;99.90;;;;;;5052387;28;20112;-72
2021/12/03 02:37:43;;;;;;;42.72;27.67;;;0.20;99.90;;;;;;5052464;28;20490;-71
2021/12/03 02:40:11;;;;;;;48.22;27.55;;;0.30;99.90;;;;;;5052345;28;20045;-70
2021/12/03 02:42:37;;;;;;;46.40;27.52;;;0.10;99.90;;;;;;5051930;28;20757;-70
2021/12/03 02:45:06;;;;;;;48.78;29.88;;;0.40;99.90;;;;;;5052532;28;20048;-70
2021/12/03 02:47:32;;;;;;;46.30;27.67;;;0.90;99.90;;;;;;5051169;28;20067;-71
2021/12/03 02:49:58;;;;;;;48.33;28.30;;;;;;;;;;5051006;28;20552;-71
2021/12/03 02:52:24;;;;;;;47.50;27.70;;;;;;;;;;5050661;28;20077;-71
2021/12/03 02:54:50;;;;;;;42.65;27.38;;;;;;;;;;5050631;28;20036;-70
2021/12/03 02:57:16;;;;;;;38.28;27.05;;;0.10;99.90;;;;;;5051783;28;20036;-70
2021/12/03 02:59:42;;;;;;;49.65;27.42;;;;;;;;;;5051741;28;20091;-70
2021/12/03 03:02:10;;;;;;;52.72;29.25;;;0.40;99.90;;;;;;5033552;28;20125;-71
2021/12/03 03:04:36;;;;;;;45.65;28.45;;;0.30;99.90;;;;;;5051647;28;20044;-71
2021/12/03 03:07:02;;;;;;;50.63;27.25;;;0.50;99.90;;;;;;5051610;28;20382;-71
2021/12/03 03:09:31;;;;;;;40.63;26.98;;;;;;;;;;5050146;28;20479;-70
2021/12/03 03:11:57;;;;;;;45.28;29.80;;;0.30;99.90;;;;;;5051267;28;20084;-71
2021/12/03 03:14:23;;;;;;;41.58;28.67;;;;;;;;;;5051271;28;20163;-71
2021/12/03 03:16:51;;;;;;;41.88;27.20;;;-0.10;99.90;;;;;;5051457;28;20045;-71
2021/12/03 03:19:19;;;;;;;43.92;29.42;;;0.20;99.90;;;;;;5051191;28;20045;-70
2021/12/03 03:21:46;;;;;;;38.58;26.92;;;0.20;99.90;;;;;;5051400;28;20074;-71
2021/12/03 03:24:12;;;;;;;39.80;27.25;;;0.20;99.90;;;;;;5051113;28;20124;-71
2021/12/03 03:26:40;;;;;;;48.30;27.85;;;0.50;99.90;;;;;;5051126;28;20124;-71
2021/12/03 03:29:08;;;;;;;39.10;26.33;;;0.40;99.90;;;;;;5051368;28;20048;-70
2021/12/03 03:31:36;;;;;;;41.17;28.13;;;0.50;99.90;;;;;;5051052;28;20493;-71
2021/12/03 03:34:04;;;;;;;41.78;28.83;;;-0.10;99.90;;;;;;5051254;28;20786;-70
2021/12/03 03:36:38;;;;;;;42.97;28.55;;;0.50;99.90;;;;;;5051144;28;20037;-71
2021/12/03 03:39:09;;;;;;;43.90;27.67;;;0.30;99.90;;;;;;5049702;28;20572;-71
2021/12/03 03:41:35;;;;;;;36.70;25.55;;;0.20;99.90;;;;;;5050956;28;20053;-71
2021/12/03 03:44:03;;;;;;;39.65;26.98;;;0.00;99.90;;;;;;5050684;28;20377;-71
2021/12/03 03:46:29;;;;;;;40.00;25.25;;;0.10;99.90;;;;;;5049512;28;20083;-71
2021/12/03 03:48:55;;;;;;;35.13;25.20;;;;;;;;;;5051023;28;20076;-70
2021/12/03 03:51:22;;;;;;;40.00;24.65;;;0.30;99.90;;;;;;5049422;28;20044;-70
2021/12/03 03:53:47;;;;;;;38.72;25.98;;;0.00;99.90;;;;;;5050392;28;20044;-71
2021/12/03 03:56:23;;;;;;;36.77;25.37;;;0.30;99.90;;;;;;5050337;28;20049;-71
2021/12/03 03:58:49;;;;;;;35.25;24.80;;;;;;;;;;5049174;28;20353;-71
2021/12/03 04:01:15;;;;;;;36.55;25.92;;;-0.70;99.90;;;;;;5050858;28;20116;-71
2021/12/03 04:03:46;;;;;;;32.63;25.60;;;;;;;;;;5050552;28;20067;-70
2021/12/03 04:06:16;;;;;;;41.35;27.35;;;0.20;99.90;;;;;;5050493;28;20052;-70
2021/12/03 04:08:43;;;;;;;40.70;26.27;;;0.50;99.90;;;;;;5049508;28;20683;-71
2021/12/03 04:11:10;;;;;;;38.83;26.65;;;0.30;99.90;;;;;;5049377;28;20049;-71
2021/12/03 04:13:36;;;;;;;38.35;27.88;;;0.40;99.90;;;;;;5050925;28;20045;-71
2021/12/03 04:16:03;;;;;;;41.30;26.08;;;0.60;99.90;;;;;;5049292;28;20049;-71
2021/12/03 04:18:29;;;;;;;33.95;26.00;;;1.10;99.90;;;;;;5050458;28;20045;-70
2021/12/03 04:20:55;;;;;;;42.47;27.60;;;1.10;99.90;;;;;;5050405;28;20154;-71
2021/12/03 04:23:22;;;;;;;35.55;26.08;;;0.30;99.90;;;;;;5053547;28;20512;-71
2021/12/03 04:25:49;;;;;;;41.42;28.40;;;0.90;99.90;;;;;;5053170;28;20044;-70
2021/12/03 04:28:17;;;;;;;43.88;29.75;;;0.20;99.90;;;;;;5054464;28;20033;-70
2021/12/03 04:30:43;;;;;;;39.38;29.05;;;0.30;99.90;;;;;;5054547;28;20048;-71
2021/12/03 04:33:09;;;;;;;39.33;28.98;;;0.00;99.90;;;;;;5053496;28;20507;-71
2021/12/03 04:35:35;;;;;;;36.60;26.58;;;0.30;99.90;;;;;;5054812;28;20045;-71
2021/12/03 04:38:02;;;;;;;38.15;27.10;;;0.30;99.90;;;;;;5054590;28;20148;-70
2021/12/03 04:40:29;;;;;;;41.28;28.50;;;0.10;99.90;;;;;;5054253;28;20041;-70
2021/12/03 04:42:57;;;;;;;36.97;27.40;;;0.40;99.90;;;;;;5054347;28;20091;-71
2021/12/03 04:45:25;;;;;;;44.75;30.52;;;0.20;99.90;;;;;;5054283;28;20460;-70
2021/12/03 04:47:52;;;;;;;38.70;28.08;;;1.10;99.90;;;;;;5053103;28;20079;-71
2021/12/03 04:50:21;;;;;;;42.00;29.15;;;0.50;99.90;;;;;;5052836;28;20424;-71
2021/12/03 04:52:49;;;;;;;48.17;31.45;;;0.40;99.90;;;;;;5054077;28;20048;-71
2021/12/03 04:55:15;;;;;;;46.83;30.00;;;0.40;99.90;;;;;;5054134;28;20052;-71
2021/12/03 04:57:42;;;;;;;47.35;30.70;;;0.10;99.90;;;;;;5054159;28;20052;-71
2021/12/03 05:00:12;;;;;;;47.47;32.28;;;0.30;99.90;;;;;;5054178;28;20100;-70
2021/12/03 05:02:38;;;;;;;49.80;30.58;;;0.60;99.90;;;;;;5052738;28;20088;-70
2021/12/03 05:05:06;;;;;;;47.25;32.47;;;0.60;99.90;;;;;;5052668;28;20504;-71
2021/12/03 05:10:09;;;;;;;50.63;33.13;;;0.60;99.90;;;;;;5053028;28;20503;-70
2021/12/03 05:12:36;;;;;;;53.28;33.67;;;0.50;99.90;;;;;;5052478;28;20504;-71
2021/12/03 05:15:03;;;;;;;52.60;31.83;;;0.50;99.90;;;;;;5054016;28;20044;-71
2021/12/03 05:17:28;;;;;;;51.75;33.60;;;0.40;99.90;;;;;;5053792;28;20484;-71
2021/12/03 05:19:54;;;;;;;53.80;34.40;;;0.40;99.90;;;;;;5053706;28;20052;-71
2021/12/03 05:22:20;;;;;;;57.08;35.13;;;;;;;;;;5053806;28;20048;-71
2021/12/03 05:24:46;;;;;;;53.20;34.65;;;0.60;99.90;;;;;;5053743;28;20041;-71
2021/12/03 05:27:18;;;;;;;52.10;34.35;;;1.50;99.90;;;;;;5053507;28;20488;-71
2021/12/03 05:29:45;;;;;;;51.30;34.17;;;0.30;99.90;;;;;;5053674;28;20049;-70
2021/12/03 05:32:11;;;;;;;55.10;34.25;;;;;;;;;;5053235;28;20037;-72
2021/12/03 05:34:39;;;;;;;50.22;33.15;;;0.70;99.90;;;;;;5053492;28;20126;-72
2021/12/03 05:37:07;;;;;;;57.00;35.42;;;-0.10;99.90;;;;;;5053617;28;20033;-71
2021/12/03 05:39:34;;;;;;;53.97;32.92;;;0.40;99.90;;;;;;5053230;28;20045;-65
2021/12/03 05:42:00;;;;;;;54.78;32.72;;;0.60;99.90;;;;;;5051862;28;20045;-65
2021/12/03 05:44:28;;;;;;;56.50;33.55;;;0.60;99.90;;;;;;5053155;28;20648;-66
2021/12/03 05:46:54;;;;;;;47.92;32.08;;;-0.40;99.90;;;;;;5051683;28;20147;-65
2021/12/03 05:49:20;;;;;;;57.38;36.13;;;0.50;99.90;;;;;;5051470;28;20037;-65
2021/12/03 05:51:46;;;;;;;54.55;34.38;;;-0.30;99.90;;;;;;5051541;28;20060;-71
2021/12/03 05:54:15;;;;;;;57.97;36.42;;;1.30;99.90;;;;;;5051541;28;20055;-71
2021/12/03 05:56:41;;;;;;;60.35;35.40;;;0.60;99.90;;;;;;5052839;28;20721;-71
2021/12/03 05:59:10;;;;;;;52.45;32.35;;;0.80;99.90;;;;;;5051450;28;20103;-71
2021/12/03 06:01:36;;;;;;;61.20;33.78;;;;;;;;;;5052429;28;20048;-71
2021/12/03 06:04:02;;;;;;;54.92;33.20;;;;;;;;;;5052351;28;20531;-71
2021/12/03 06:06:29;;;;;;;53.42;33.33;;;0.10;99.90;;;;;;5051106;28;20056;-71
2021/12/03 06:08:58;;;;;;;54.30;33.88;;;0.60;99.90;;;;;;5052682;28;20033;-71
2021/12/03 06:11:24;;;;;;;56.42;35.40;;;0.80;99.90;;;;;;5052896;28;20080;-71
2021/12/03 06:13:50;;;;;;;65.13;37.05;;;0.70;99.90;;;;;;5052527;28;20519;-71
2021/12/03 06:16:17;;;;;;;58.47;35.30;;;;;;;;;;5052800;28;20044;-71
2021/12/03 06:18:43;;;;;;;54.70;31.83;;;;;;;;;;5052366;28;20117;-71
2021/12/03 06:21:11;;;;;;;56.75;33.20;;;0.70;99.90;;;;;;5034587;28;20481;-72
2021/12/03 06:23:38;;;;;;;59.05;33.72;;;1.00;99.90;;;;;;5052618;28;20587;-71
2021/12/03 06:26:04;;;;;;;55.05;34.03;;;0.70;99.90;;;;;;5051125;28;20045;-66
2021/12/03 06:28:32;;;;;;;58.15;33.90;;;0.60;99.90;;;;;;5050909;28;20049;-65
2021/12/03 06:30:58;;;;;;;62.50;34.90;;;0.60;99.90;;;;;;5052429;28;20708;-65
2021/12/03 06:33:24;;;;;;;63.45;36.90;;;;;;;;;;5051037;28;20512;-65
2021/12/03 06:35:51;;;;;;;58.38;33.90;;;0.60;99.90;;;;;;5050805;28;20053;-65
2021/12/03 06:38:19;;;;;;;64.47;34.35;;;0.50;99.90;;;;;;5050991;28;20400;-65
2021/12/03 06:40:46;;;;;;;58.22;33.75;;;0.50;99.90;;;;;;5050573;28;20053;-65
2021/12/03 06:43:12;;;;;;;65.10;35.55;;;0.90;99.90;;;;;;5050538;28;20061;-66
2021/12/03 06:45:38;;;;;;;71.97;39.33;;;;;;;;;;5050087;28;20560;-65
2021/12/03 06:48:05;;;;;;;72.97;36.80;;;0.80;99.90;;;;;;5051928;28;20040;-65
2021/12/03 06:50:32;;;;;;;70.65;36.15;;;;;;;;;;5051716;28;20045;-65
2021/12/03 06:53:24;;;;;;;71.07;35.83;;;0.80;99.90;;;;;;5052111;28;20056;-65
2021/12/03 06:58:17;;;;;;;68.30;36.90;;;0.80;99.90;;;;;;5051645;28;20060;-65
2021/12/03 07:00:48;;;;;;;72.50;37.10;;;0.70;99.90;;;;;;5051649;28;20594;-65
2021/12/03 07:03:14;;;;;;;73.43;38.63;;;0.90;99.90;;;;;;5051553;28;20484;-65
2021/12/03 07:05:40;;;;;;;68.28;35.75;;;1.80;99.90;;;;;;5058945;28;20039;-65
2021/12/03 07:08:06;;;;;;;78.28;38.20;;;0.80;99.90;;;;;;5071322;28;20123;-65
2021/12/03 07:10:35;;;;;;;73.20;35.70;;;0.90;99.90;;;;;;5071347;28;20502;-65
2021/12/03 07:13:00;;;;;;;72.85;36.95;;;0.90;99.90;;;;;;5071519;28;20369;-66
2021/12/03 07:15:29;;;;;;;74.40;37.72;;;1.20;99.90;;;;;;5071093;28;20086;-66
2021/12/03 07:17:55;;;;;;;71.47;37.30;;;0.40;99.90;;;;;;5071410;28;20076;-66
2021/12/03 07:20:23;;;;;;;77.90;38.03;;;1.00;99.90;;;;;;5071029;28;20575;-66
2021/12/03 07:22:50;;;;;;;75.70;37.80;;;;;;;;;;5069827;28;20053;-66
2021/12/03 07:25:16;;;;;;;77.05;39.88;;;1.20;99.90;;;;;;5069817;28;20051;-66
2021/12/03 07:27:42;;;;;;;90.25;41.03;;;1.30;99.90;;;;;;5071017;28;20052;-66
2021/12/03 07:30:10;;;;;;;79.90;39.20;;;-0.80;99.90;;;;;;5071201;28;20064;-71
2021/12/03 07:32:36;;;;;;;76.30;38.15;;;1.20;99.90;;;;;;5069546;28;20083;-71
2021/12/03 07:35:04;;;;;;;86.55;38.95;;;1.20;99.90;;;;;;5071046;28;20123;-72
2021/12/03 07:37:30;;;;;;;79.28;39.70;;;;;;;;;;5070570;28;20047;-71
2021/12/03 07:39:57;;;;;;;79.57;38.90;;;1.20;99.90;;;;;;5070326;28;20436;-71
2021/12/03 07:42:22;;;;;;;90.00;42.30;;;1.30;99.90;;;;;;5069976;28;20094;-71
2021/12/03 07:44:49;;;;;;;88.43;39.83;;;;;;;;;;5069988;28;20075;-71
2021/12/03 07:47:15;;;;;;;82.63;39.35;;;;;;;;;;5068718;28;20070;-71
2021/12/03 07:49:44;;;;;;;86.63;41.35;;;;;;;;;;5070589;28;20044;-71
2021/12/03 07:52:12;;;;;;;92.55;44.83;;;;;;;;;;5070148;28;20515;-71
2021/12/03 07:54:38;;;;;;;91.00;40.60;;;;;;;;;;5070185;28;20072;-72
2021/12/03 07:57:04;;;;;;;84.53;40.25;;;1.40;99.90;;;;;;5068302;28;20044;-73
2021/12/03 07:59:34;;;;;;;74.88;37.85;;;;;;;;;;5070554;28;20043;-72
2021/12/03 08:01:59;;;;;;;79.28;40.40;;;1.60;99.90;;;;;;5069350;28;20051;-72
2021/12/03 08:04:25;;;;;;;85.78;39.97;;;;;;;;;;5065821;28;20036;-72
2021/12/03 08:06:53;;;;;;;90.47;41.88;;;1.70;99.90;;;;;;5061509;28;20048;-71
2021/12/03 08:09:21;;;;;;;93.45;44.67;;;1.70;99.90;;;;;;5069463;28;20080;-71
2021/12/03 08:11:50;;;;;;;103.85;44.88;;;;;;;;;;5069355;28;20116;-71
2021/12/03 08:14:16;;;;;;;108.30;47.17;;;1.70;99.90;;;;;;5069554;28;20070;-71
2021/12/03 08:16:43;;;;;;;111.70;47.15;;;;;;;;;;5068404;28;20075;-71
2021/12/03 08:19:09;;;;;;;113.53;48.35;;;1.60;99.90;;;;;;5067848;28;20043;-71
2021/12/03 08:21:35;;;;;;;115.45;48.42;;;;;;;;;;5069421;28;20044;-72
2021/12/03 08:24:01;;;;;;;129.15;48.47;;;;;;;;;;5069636;28;20127;-71
2021/12/03 08:26:28;;;;;;;118.13;47.85;;;1.50;99.90;;;;;;5068042;28;20386;-69
2021/12/03 08:28:55;;;;;;;130.55;47.55;;;2.10;99.90;;;;;;5069696;28;20037;-69
2021/12/03 08:31:21;;;;;;;136.63;48.63;;;;;;;;;;5069295;28;20053;-69
2021/12/03 08:33:48;;;;;;;140.27;49.42;;;1.50;99.90;;;;;;5069110;28;20142;-68
2021/12/03 08:36:15;;;;;;;143.80;47.72;;;1.30;99.90;;;;;;5051735;28;20067;-70
2021/12/03 08:38:41;;;;;;;137.60;49.97;;;1.80;99.90;;;;;;5068053;28;20056;-70
2021/12/03 08:41:10;;;;;;;130.68;46.55;;;1.30;99.90;;;;;;5068114;28;20113;-69
2021/12/03 08:43:39;;;;;;;138.73;48.97;;;1.60;99.90;;;;;;5068237;28;20048;-71
2021/12/03 08:46:15;;;;;;;140.20;48.05;;;1.80;99.90;;;;;;5068018;28;20048;-68
2021/12/03 08:48:53;;;;;;;146.23;47.17;;;1.90;99.90;;;;;;5066645;28;20586;-66
2021/12/03 08:51:29;;;;;;;143.40;49.80;;;1.70;99.90;;;;;;5050071;28;20103;-66
2021/12/03 08:56:43;;;;;;;140.75;47.22;;;;;;;;;;5047940;28;20164;-66
2021/12/03 08:59:10;;;;;;;135.90;48.25;;;2.30;99.90;;;;;;5049993;28;20092;-71
2021/12/03 09:01:36;;;;;;;126.63;48.78;;;;;;;;;;5055033;28;20044;-71
2021/12/03 09:04:03;;;;;;;137.32;47.80;;;;;;;;;;5069270;28;20565;-70
2021/12/03 09:06:29;;;;;;;135.20;45.97;;;1.60;99.90;;;;;;5067738;28;20101;-69
2021/12/03 09:08:55;;;;;;;126.60;47.40;;;2.30;99.90;;;;;;5071471;28;20040;-70
2021/12/03 09:11:23;;;;;;;133.23;46.53;;;2.60;99.90;;;;;;5073143;28;20484;-70
2021/12/03 09:13:50;;;;;;;135.23;47.58;;;;;;;;;;5071313;28;20538;-69
2021/12/03 09:16:19;;;;;;;130.20;46.30;;;;;;;;;;5071343;28;20064;-69
2021/12/03 09:18:49;;;;;;;127.47;46.42;;;2.60;99.90;;;;;;5071251;28;20096;-67
2021/12/03 09:26:26;;;;;;;105.25;41.17;;;;;;;;;;5072004;28;20040;-66
2021/12/03 09:29:00;;;;;;;111.75;41.78;;;2.30;99.90;;;;;;5072343;28;20049;-68
2021/12/03 09:31:27;;;;;;;105.53;39.47;;;;;;;;;;5071169;28;20048;-68
2021/12/03 09:33:53;;;;;;;105.32;41.95;;;;;;;;;;5054273;28;20135;-68
2021/12/03 09:36:19;;;;;;;101.00;39.13;;;;;;;;;;5072711;28;20045;-67
2021/12/03 09:38:50;;;;;;;90.05;38.97;;;2.80;99.90;;;;;;5071081;28;20102;-66
2021/12/03 09:41:20;;;;;;;96.65;38.17;;;2.40;99.90;;;;;;5071182;28;20566;-66
2021/12/03 09:43:52;;;;;;;98.28;39.63;;;2.70;99.90;;;;;;5072097;28;20131;-66
2021/12/03 09:46:23;;;;;;;94.65;37.03;;;3.00;99.90;;;;;;5072373;28;20090;-66
2021/12/03 09:51:38;;;;;;;102.72;39.80;;;2.50;99.90;;;;;;5062922;28;20168;-69
2021/12/03 09:56:40;;;;;;;87.43;34.35;;;2.90;99.90;;;;;;5071405;28;20056;-69
2021/12/03 10:02:02;;;;;;;79.35;32.72;;;;;;;;;;5072572;28;20516;-69
2021/12/03 10:04:34;;;;;;;74.15;33.17;;;;;;;;;;5072733;28;20151;-68
2021/12/03 10:12:47;;;;;;;61.50;28.95;;;2.80;99.90;;;;;;5072750;28;20107;-70
2021/12/03 10:15:21;;;;;;;60.17;28.55;;;2.70;99.90;;;;;;5071299;28;20094;-71
2021/12/03 10:39:21;;;;;;;42.33;17.15;;;3.20;99.90;;;;;;5070425;28;20047;-70
2021/12/03 10:51:00;;;;;;;40.25;14.98;;;;;;;;;;5012606;28;20192;-71
2021/12/03 10:53:34;;;;;;;27.92;13.95;;;;;;;;;;5012672;28;20183;-71
2021/12/03 10:59:13;;;;;;;31.75;12.90;;;2.10;99.90;;;;;;4970824;28;20073;-71
2021/12/03 11:13:37;;;;;;;24.52;10.85;;;1.70;99.90;;;;;;4969525;28;20062;-66
2021/12/03 11:25:12;;;;;;;26.52;9.52;;;3.10;99.90;;;;;;4981931;28;20053;-66
2021/12/03 11:41:13;;;;;;;23.20;8.68;;;3.20;99.90;;;;;;5071067;28;20051;-67
2021/12/03 11:50:29;;;;;;;19.52;8.32;;;3.40;99.90;;;;;;5071224;28;20060;-67
2021/12/03 12:04:27;;;;;;;23.38;8.55;;;3.30;99.90;;;;;;5069532;28;20078;-66
2021/12/03 12:44:35;;;;;;;24.95;10.88;;;2.70;99.90;;;;;;5071275;28;20102;-66
2021/12/03 14:44:23;;;;;;;25.52;9.82;;;3.70;99.90;;;;;;5031087;28;20519;-72
2021/12/03 14:49:51;;;;;;;18.98;9.68;;;3.30;99.90;;;;;;5071984;28;20060;-72
2021/12/03 14:58:02;;;;;;;23.27;9.73;;;4.00;99.90;;;;;;5071961;28;20048;-72
2021/12/03 15:00:36;;;;;;;22.80;9.70;;;3.60;99.90;;;;;;5059843;28;20062;-73
2021/12/03 15:03:09;;;;;;;21.85;9.65;;;3.80;99.90;;;;;;5069619;28;20056;-72
2021/12/03 15:06:02;;;;;;;22.40;9.07;;;3.70;99.90;;;;;;5071088;28;20040;-67
2021/12/03 15:08:41;;;;;;;21.10;8.95;;;3.70;99.90;;;;;;5071526;28;20127;-67
2021/12/03 15:21:49;;;;;;;22.70;9.70;;;3.90;99.90;;;;;;5070147;28;20396;-68
2021/12/03 15:31:54;;;;;;;19.08;8.18;;;3.90;99.90;;;;;;5069976;28;20048;-68
2021/12/03 16:04:48;;;;;;;12.90;8.10;;;3.90;99.90;;;;;;5011460;28;20104;-72
2021/12/03 16:07:25;;;;;;;12.50;8.77;;;4.30;99.90;;;;;;5028319;28;20049;-72
2021/12/03 16:10:13;;;;;;;16.48;9.93;;;;;;;;;;5032536;28;20778;-72
2021/12/03 16:48:00;;;;;;;14.00;10.90;;;;;;;;;;5030163;28;20233;-67
2021/12/03 16:52:52;;;;;;;15.27;11.60;;;4.60;99.90;;;;;;5030056;28;20052;-67
2021/12/03 16:55:20;;;;;;;15.50;11.43;;;4.10;99.90;;;;;;5030653;28;20049;-67
2021/12/03 16:57:50;;;;;;;14.05;11.45;;;4.20;99.90;;;;;;5046580;28;20106;-67
2021/12/03 17:00:23;;;;;;;14.45;11.55;;;4.00;99.90;;;;;;5030753;28;20045;-67
2021/12/03 17:02:58;;;;;;;17.45;12.40;;;3.80;99.90;;;;;;5027166;28;20048;-67
2021/12/03 17:47:51;;;;;;;17.55;15.30;;;4.30;99.90;;;;;;5073664;28;20051;-67
2021/12/03 17:58:46;;;;;;;21.48;17.95;;;4.10;99.90;;;;;;5050776;28;20052;-67
2021/12/03 18:01:19;;;;;;;21.92;19.52;;;4.20;99.90;;;;;;5017256;28;20056;-67
2021/12/03 18:15:25;;;;;;;26.27;22.48;;;;;;;;;;5010987;28;20129;-67
2021/12/03 18:45:22;;;;;;;32.90;26.75;;;4.60;99.90;;;;;;5005850;28;20096;-67
2021/12/03 18:54:04;;;;;;;36.65;26.73;;;;;;;;;;5030020;28;20128;-67
2021/12/03 18:56:14;;;;;;;33.10;27.92;;;4.50;99.90;;;;;;5004208;28;20620;-67
2021/12/03 18:58:41;;;;;;;32.58;27.60;;;4.30;99.90;;;;;;5047367;28;20055;-67
2021/12/03 19:01:07;;;;;;;33.78;27.98;;;4.70;99.90;;;;;;5051830;28;20079;-67
2021/12/03 19:06:23;;;;;;;32.08;25.90;;;;;;;;;;5069855;28;20098;-67
2021/12/03 19:13:59;;;;;;;32.25;26.77;;;;;;;;;;5070834;28;20045;-67
2021/12/03 19:16:27;;;;;;;31.88;25.92;;;4.20;99.90;;;;;;5070639;28;20071;-67
2021/12/03 19:18:56;;;;;;;34.90;27.55;;;4.20;99.90;;;;;;5070632;28;20045;-67
2021/12/03 19:21:25;;;;;;;37.80;27.25;;;4.30;99.90;;;;;;5070818;28;20041;-67
2021/12/03 19:23:58;;;;;;;35.63;27.27;;;4.30;99.90;;;;;;5070324;28;20045;-67
2021/12/03 19:26:26;;;;;;;33.50;27.35;;;4.00;99.90;;;;;;5069403;28;20053;-68
2021/12/03 19:28:53;;;;;;;32.60;27.48;;;4.40;99.90;;;;;;5063662;28;20422;-67
2021/12/03 19:31:22;;;;;;;30.08;26.80;;;4.40;99.90;;;;;;5068451;28;20496;-68
2021/12/03 19:33:48;;;;;;;33.65;28.85;;;4.50;99.90;;;;;;5067051;28;20131;-67
2021/12/03 19:36:22;;;;;;;31.95;28.00;;;4.40;99.90;;;;;;5068250;28;20774;-67
2021/12/03 19:38:49;;;;;;;35.83;29.30;;;4.60;99.90;;;;;;5070614;28;20139;-67
2021/12/03 19:41:20;;;;;;;35.00;29.88;;;4.90;99.90;;;;;;5052460;28;20064;-67
2021/12/03 19:43:52;;;;;;;35.65;28.85;;;4.60;99.90;;;;;;5070255;28;20057;-67
2021/12/03 19:46:26;;;;;;;34.22;27.92;;;4.60;99.90;;;;;;5070744;28;20036;-67
2021/12/03 19:51:22;;;;;;;35.95;30.35;;;4.20;99.90;;;;;;5069385;28;20048;-68
2021/12/03 19:53:56;;;;;;;38.08;29.88;;;;;;;;;;5068625;28;20052;-67
2021/12/03 19:56:29;;;;;;;37.25;29.83;;;4.10;99.90;;;;;;5069391;28;20492;-68
2021/12/03 19:58:58;;;;;;;37.65;29.67;;;4.30;99.90;;;;;;5069995;28;20140;-68
2021/12/03 20:01:23;;;;;;;37.92;30.52;;;4.70;99.90;;;;;;5070564;28;20054;-67
2021/12/03 20:03:51;;;;;;;42.15;29.52;;;;;;;;;;5068616;28;20056;-67
2021/12/03 20:06:18;;;;;;;39.45;30.80;;;4.70;99.90;;;;;;5069965;28;20388;-67
2021/12/03 20:08:45;;;;;;;41.13;31.17;;;;;;;;;;5070067;28;20055;-68
2021/12/03 20:11:11;;;;;;;43.13;31.25;;;;;;;;;;5069325;28;20052;-67
2021/12/03 20:13:42;;;;;;;41.72;31.77;;;;;;;;;;5068680;28;20052;-67
2021/12/03 20:20:59;;;;;;;35.08;27.10;;;4.60;99.90;;;;;;5068728;28;20120;-68
2021/12/03 20:31:26;;;;;;;35.22;27.35;;;4.20;99.90;;;;;;5010753;28;20405;-67
2021/12/03 20:36:46;;;;;;;36.58;28.27;;;3.90;99.90;;;;;;5027282;28;20053;-67
2021/12/03 20:39:18;;;;;;;36.53;27.48;;;4.40;99.90;;;;;;5027939;28;20053;-68
2021/12/03 20:41:51;;;;;;;35.20;27.23;;;4.40;99.90;;;;;;5027074;28;20061;-67
2021/12/03 20:44:44;;;;;;;36.83;28.33;;;4.60;99.90;;;;;;5027130;28;20056;-67
2021/12/03 20:47:22;;;;;;;39.72;29.55;;;4.60;99.90;;;;;;5010694;28;20048;-68
2021/12/03 20:50:37;;;;;;;40.17;29.27;;;4.40;99.90;;;;;;5026211;28;20053;-67
2021/12/03 20:52:50;;;;;;;40.35;30.20;;;4.40;99.90;;;;;;5008609;28;20049;-67
2021/12/03 21:08:49;;;;;;;35.35;28.08;;;;;;;;;;5053525;28;20458;-67
2021/12/03 21:13:47;;;;;;;39.20;28.60;;;4.50;99.90;;;;;;5052158;28;19962;-67
2021/12/03 21:21:33;;;;;;;41.53;28.98;;;;;;;;;;5073587;28;20056;-67
2021/12/03 21:24:00;;;;;;;43.05;29.58;;;4.60;99.90;;;;;;5073366;28;20477;-67
2021/12/03 21:26:30;;;;;;;43.47;29.48;;;4.50;99.90;;;;;;5072915;28;20051;-67